sensor_id;sensor_type;location;lat;lon;timestamp;pressure;altitude;pressure_sealevel;temperature;humidity
44001;BME280;29660;42.892;24.710;2022-11-15T00:00:06;97618.09;;;6.82;100.00
44001;BME280;29660;42.892;24.710;2022-11-15T00:05:26;97639.00;;;7.01;100.00
44001;BME280;29660;42.892;24.710;2022-11-15T00:10:59;97359.16;;;5.19;100.00
44001;BME280;29660;42.892;24.710;2022-11-15T00:16:20;97629.88;;;6.92;100.00
44001;BME280;29660;42.892;24.710;2022-11-15T00:21:41;97647.19;;;6.99;100.00
44001;BME280;29660;42.892;24.710;2022-11-15T00:27:01;97378.66;;;5.35;100.00
44001;BME280;29660;42.892;24.710;2022-11-15T00:32:25;97558.50;;;6.41;100.00
44001;BME280;29660;42.892;24.710;2022-11-15T00:37:45;97593.44;;;6.82;100.00
44001;BME280;29660;42.892;24.710;2022-11-15T00:43:07;97606.97;;;6.80;100.00
44001;BME280;29660;42.892;24.710;2022-11-15T00:48:28;97685.09;;;7.17;100.00
44001;BME280;29660;42.892;24.710;2022-11-15T00:53:48;97363.47;;;5.08;100.00
44001;BME280;29660;42.892;24.710;2022-11-15T00:59:08;97576.19;;;6.57;100.00
44001;BME280;29660;42.892;24.710;2022-11-15T01:04:29;97398.09;;;5.46;100.00
44001;BME280;29660;42.892;24.710;2022-11-15T01:09:49;97448.00;;;5.76;100.00
44001;BME280;29660;42.892;24.710;2022-11-15T01:15:10;97647.16;;;7.16;100.00
44001;BME280;29660;42.892;24.710;2022-11-15T01:20:30;97650.66;;;7.22;100.00
44001;BME280;29660;42.892;24.710;2022-11-15T01:25:51;97463.22;;;6.02;100.00
44001;BME280;29660;42.892;24.710;2022-11-15T01:31:17;97367.69;;;5.43;100.00
44001;BME280;29660;42.892;24.710;2022-11-15T01:36:38;97319.59;;;5.07;100.00
44001;BME280;29660;42.892;24.710;2022-11-15T01:41:58;97592.16;;;6.84;100.00
44001;BME280;29660;42.892;24.710;2022-11-15T01:47:31;97571.25;;;6.66;100.00
44001;BME280;29660;42.892;24.710;2022-11-15T01:52:54;97637.22;;;7.06;100.00
44001;BME280;29660;42.892;24.710;2022-11-15T01:58:14;97601.59;;;6.97;100.00
44001;BME280;29660;42.892;24.710;2022-11-15T02:03:49;97471.84;;;6.14;100.00
44001;BME280;29660;42.892;24.710;2022-11-15T02:09:12;97659.16;;;7.24;100.00
44001;BME280;29660;42.892;24.710;2022-11-15T02:14:33;97644.81;;;7.20;100.00
44001;BME280;29660;42.892;24.710;2022-11-15T02:37:15;97626.06;;;7.04;100.00
44001;BME280;29660;42.892;24.710;2022-11-15T02:42:43;97607.50;;;6.82;100.00
44001;BME280;29660;42.892;24.710;2022-11-15T02:48:27;97288.19;;;4.94;100.00
44001;BME280;29660;42.892;24.710;2022-11-15T02:53:48;97617.97;;;6.94;100.00
44001;BME280;29660;42.892;24.710;2022-11-15T03:04:57;97615.59;;;6.93;100.00
44001;BME280;29660;42.892;24.710;2022-11-15T03:10:25;97256.06;;;4.63;100.00
44001;BME280;29660;42.892;24.710;2022-11-15T03:16:01;97276.69;;;4.66;100.00
44001;BME280;29660;42.892;24.710;2022-11-15T03:21:24;97605.16;;;6.86;100.00
44001;BME280;29660;42.892;24.710;2022-11-15T03:26:47;97266.94;;;4.67;100.00
44001;BME280;29660;42.892;24.710;2022-11-15T03:32:15;97281.84;;;4.73;100.00
44001;BME280;29660;42.892;24.710;2022-11-15T03:37:56;97323.94;;;4.97;100.00
44001;BME280;29660;42.892;24.710;2022-11-15T03:49:00;97611.81;;;6.67;100.00
44001;BME280;29660;42.892;24.710;2022-11-15T03:54:24;97597.41;;;6.57;100.00
44001;BME280;29660;42.892;24.710;2022-11-15T03:59:45;97314.81;;;4.71;100.00
44001;BME280;29660;42.892;24.710;2022-11-15T04:05:05;97560.59;;;6.17;100.00
44001;BME280;29660;42.892;24.710;2022-11-15T04:10:26;97572.56;;;6.42;100.00
44001;BME280;29660;42.892;24.710;2022-11-15T04:15:46;97508.06;;;5.92;100.00
44001;BME280;29660;42.892;24.710;2022-11-15T04:21:07;97462.06;;;5.59;100.00
44001;BME280;29660;42.892;24.710;2022-11-15T04:26:47;97565.53;;;6.30;100.00
44001;BME280;29660;42.892;24.710;2022-11-15T04:32:07;97499.16;;;5.98;100.00
44001;BME280;29660;42.892;24.710;2022-11-15T04:37:28;97519.59;;;6.25;100.00
44001;BME280;29660;42.892;24.710;2022-11-15T04:42:48;97468.69;;;5.96;100.00
44001;BME280;29660;42.892;24.710;2022-11-15T04:48:08;97560.00;;;6.54;100.00
44001;BME280;29660;42.892;24.710;2022-11-15T04:53:28;97243.66;;;4.64;100.00
44001;BME280;29660;42.892;24.710;2022-11-15T04:58:49;97542.97;;;6.50;100.00
44001;BME280;29660;42.892;24.710;2022-11-15T05:04:10;97554.63;;;6.49;100.00
44001;BME280;29660;42.892;24.710;2022-11-15T05:09:39;97540.34;;;6.50;100.00
44001;BME280;29660;42.892;24.710;2022-11-15T05:14:59;97305.91;;;4.93;100.00
44001;BME280;29660;42.892;24.710;2022-11-15T05:20:20;97237.84;;;4.45;100.00
44001;BME280;29660;42.892;24.710;2022-11-15T05:25:40;97234.47;;;4.33;100.00
44001;BME280;29660;42.892;24.710;2022-11-15T05:36:27;97567.56;;;6.45;100.00
44001;BME280;29660;42.892;24.710;2022-11-15T05:41:53;97578.34;;;6.38;100.00
44001;BME280;29660;42.892;24.710;2022-11-15T05:47:21;97259.84;;;4.34;100.00
44001;BME280;29660;42.892;24.710;2022-11-15T05:52:43;97214.06;;;4.11;100.00
44001;BME280;29660;42.892;24.710;2022-11-15T05:58:05;97500.34;;;5.90;100.00
44001;BME280;29660;42.892;24.710;2022-11-15T06:03:25;97305.38;;;4.58;100.00
44001;BME280;29660;42.892;24.710;2022-11-15T06:08:46;97108.16;;;3.24;100.00
44001;BME280;29660;42.892;24.710;2022-11-15T06:14:08;97517.69;;;5.64;100.00
44001;BME280;29660;42.892;24.710;2022-11-15T06:19:28;97562.28;;;6.06;100.00
44001;BME280;29660;42.892;24.710;2022-11-15T06:24:53;97454.31;;;5.36;100.00
44001;BME280;29660;42.892;24.710;2022-11-15T06:30:13;97290.94;;;4.32;100.00
44001;BME280;29660;42.892;24.710;2022-11-15T06:35:35;97252.13;;;3.99;100.00
44001;BME280;29660;42.892;24.710;2022-11-15T06:41:04;97553.28;;;5.90;100.00
44001;BME280;29660;42.892;24.710;2022-11-15T06:46:25;97147.75;;;3.57;100.00
44001;BME280;29660;42.892;24.710;2022-11-15T06:51:45;97208.06;;;3.99;100.00
44001;BME280;29660;42.892;24.710;2022-11-15T06:57:06;97582.22;;;6.31;100.00
44001;BME280;29660;42.892;24.710;2022-11-15T07:02:26;97566.88;;;6.33;100.00
44001;BME280;29660;42.892;24.710;2022-11-15T07:07:54;97500.38;;;6.12;100.00
44001;BME280;29660;42.892;24.710;2022-11-15T07:13:15;97260.03;;;4.83;100.00
44001;BME280;29660;42.892;24.710;2022-11-15T07:18:37;97516.72;;;6.48;100.00
44001;BME280;29660;42.892;24.710;2022-11-15T07:24:00;97127.94;;;4.22;100.00
44001;BME280;29660;42.892;24.710;2022-11-15T07:29:20;97518.59;;;6.75;100.00
44001;BME280;29660;42.892;24.710;2022-11-15T07:34:40;97497.91;;;6.72;100.00
44001;BME280;29660;42.892;24.710;2022-11-15T07:40:01;97465.44;;;6.59;100.00
44001;BME280;29660;42.892;24.710;2022-11-15T07:45:23;97525.59;;;7.08;100.00
44001;BME280;29660;42.892;24.710;2022-11-15T07:50:46;97476.50;;;6.78;100.00
44001;BME280;29660;42.892;24.710;2022-11-15T07:56:07;97445.28;;;6.58;100.00
44001;BME280;29660;42.892;24.710;2022-11-15T08:01:28;97398.38;;;6.32;100.00
44001;BME280;29660;42.892;24.710;2022-11-15T08:06:48;97185.81;;;5.06;100.00
44001;BME280;29660;42.892;24.710;2022-11-15T08:12:09;97527.47;;;7.12;100.00
44001;BME280;29660;42.892;24.710;2022-11-15T08:17:29;97518.22;;;7.15;100.00
44001;BME280;29660;42.892;24.710;2022-11-15T08:22:52;97176.78;;;5.02;100.00
44001;BME280;29660;42.892;24.710;2022-11-15T08:28:12;97502.59;;;7.19;100.00
44001;BME280;29660;42.892;24.710;2022-11-15T08:33:33;97509.53;;;7.20;100.00
44001;BME280;29660;42.892;24.710;2022-11-15T08:38:53;97164.06;;;4.99;100.00
44001;BME280;29660;42.892;24.710;2022-11-15T08:44:14;97172.84;;;5.05;100.00
44001;BME280;29660;42.892;24.710;2022-11-15T08:49:34;97501.91;;;7.01;100.00
44001;BME280;29660;42.892;24.710;2022-11-15T08:54:55;97425.09;;;6.52;100.00
44001;BME280;29660;42.892;24.710;2022-11-15T09:00:16;97450.41;;;6.65;100.00
44001;BME280;29660;42.892;24.710;2022-11-15T09:05:36;97433.91;;;6.58;100.00
44001;BME280;29660;42.892;24.710;2022-11-15T09:10:58;97262.16;;;5.69;100.00
44001;BME280;29660;42.892;24.710;2022-11-15T09:16:18;96728.97;;;2.44;100.00
44001;BME280;29660;42.892;24.710;2022-11-15T09:21:39;97086.03;;;4.70;100.00
44001;BME280;29660;42.892;24.710;2022-11-15T09:27:01;97424.88;;;6.86;100.00
44001;BME280;29660;42.892;24.710;2022-11-15T09:32:39;97399.59;;;7.05;100.00
44001;BME280;29660;42.892;24.710;2022-11-15T09:37:59;97337.72;;;6.95;100.00
44001;BME280;29660;42.892;24.710;2022-11-15T09:49:14;97307.78;;;7.47;98.63
44001;BME280;29660;42.892;24.710;2022-11-15T09:54:37;97109.75;;;6.47;96.25
44001;BME280;29660;42.892;24.710;2022-11-15T10:05:47;96820.25;;;5.06;92.63
44001;BME280;29660;42.892;24.710;2022-11-15T10:10:56;97337.03;;;8.45;92.43
44001;BME280;29660;42.892;24.710;2022-11-15T10:21:44;97098.91;;;7.17;90.53
44001;BME280;29660;42.892;24.710;2022-11-15T10:26:50;97214.22;;;8.18;90.47
44001;BME280;29660;42.892;24.710;2022-11-15T10:31:53;97358.59;;;9.05;90.50
44001;BME280;29660;42.892;24.710;2022-11-15T10:36:56;97304.59;;;8.84;92.56
44001;BME280;29660;42.892;24.710;2022-11-15T10:42:16;97040.53;;;7.06;91.72
44001;BME280;29660;42.892;24.710;2022-11-15T10:47:29;97303.81;;;8.73;91.09
44001;BME280;29660;42.892;24.710;2022-11-15T10:52:45;97339.16;;;8.84;91.49
44001;BME280;29660;42.892;24.710;2022-11-15T10:57:54;97033.31;;;6.81;92.03
44001;BME280;29660;42.892;24.710;2022-11-15T11:13:26;97334.41;;;8.96;92.21
44001;BME280;29660;42.892;24.710;2022-11-15T11:18:34;97003.66;;;7.10;90.81
44001;BME280;29660;42.892;24.710;2022-11-15T11:23:52;96990.66;;;7.19;90.39
44001;BME280;29660;42.892;24.710;2022-11-15T11:51:27;96942.63;;;7.61;89.10
44001;BME280;29660;42.892;24.710;2022-11-15T11:56:36;97155.00;;;9.18;89.13
44001;BME280;29660;42.892;24.710;2022-11-15T12:01:43;97115.91;;;9.13;87.67
44001;BME280;29660;42.892;24.710;2022-11-15T12:17:29;97194.94;;;9.67;85.77
44001;BME280;29660;42.892;24.710;2022-11-15T12:28:03;97218.75;;;9.48;89.84
44001;BME280;29660;42.892;24.710;2022-11-15T12:33:40;97176.50;;;9.31;89.58
44001;BME280;29660;42.892;24.710;2022-11-15T12:39:03;97199.81;;;9.50;90.12
44001;BME280;29660;42.892;24.710;2022-11-15T12:44:11;97178.44;;;9.16;90.70
44001;BME280;29660;42.892;24.710;2022-11-15T13:20:36;96861.53;;;7.19;93.44
44001;BME280;29660;42.892;24.710;2022-11-15T13:25:56;97174.72;;;9.06;94.52
44001;BME280;29660;42.892;24.710;2022-11-15T13:36:23;97161.03;;;8.74;96.16
44001;BME280;29660;42.892;24.710;2022-11-15T13:41:28;96817.00;;;6.24;97.80
44001;BME280;29660;42.892;24.710;2022-11-15T13:46:32;96824.66;;;6.21;98.26
44001;BME280;29660;42.892;24.710;2022-11-15T13:51:47;97174.38;;;8.18;99.74
44001;BME280;29660;42.892;24.710;2022-11-15T13:56:57;97115.41;;;7.59;100.00
44001;BME280;29660;42.892;24.710;2022-11-15T14:02:11;96914.69;;;6.21;100.00
44001;BME280;29660;42.892;24.710;2022-11-15T14:07:31;97157.88;;;7.70;100.00
44001;BME280;29660;42.892;24.710;2022-11-15T14:12:35;96817.28;;;5.50;100.00
44001;BME280;29660;42.892;24.710;2022-11-15T14:17:37;96564.63;;;3.76;100.00
44001;BME280;29660;42.892;24.710;2022-11-15T14:23:36;97155.19;;;7.44;100.00
44001;BME280;29660;42.892;24.710;2022-11-15T14:38:23;97027.13;;;6.45;100.00
44001;BME280;29660;42.892;24.710;2022-11-15T14:43:26;96807.59;;;5.08;100.00
44001;BME280;29660;42.892;24.710;2022-11-15T14:48:28;96827.97;;;5.17;100.00
44001;BME280;29660;42.892;24.710;2022-11-15T14:53:30;96794.31;;;5.03;100.00
44001;BME280;29660;42.892;24.710;2022-11-15T14:58:32;96889.00;;;5.53;100.00
44001;BME280;29660;42.892;24.710;2022-11-15T15:03:35;96818.41;;;5.06;100.00
44001;BME280;29660;42.892;24.710;2022-11-15T15:08:36;96838.13;;;5.31;100.00
44001;BME280;29660;42.892;24.710;2022-11-15T15:13:38;97002.66;;;6.23;100.00
44001;BME280;29660;42.892;24.710;2022-11-15T15:18:40;97138.69;;;7.11;100.00
44001;BME280;29660;42.892;24.710;2022-11-15T15:23:42;97068.28;;;6.78;100.00
44001;BME280;29660;42.892;24.710;2022-11-15T15:28:44;96825.63;;;5.21;100.00
44001;BME280;29660;42.892;24.710;2022-11-15T15:33:46;97128.34;;;7.20;100.00
44001;BME280;29660;42.892;24.710;2022-11-15T15:38:48;96944.03;;;5.99;100.00
44001;BME280;29660;42.892;24.710;2022-11-15T15:43:50;96811.88;;;5.19;100.00
44001;BME280;29660;42.892;24.710;2022-11-15T15:48:53;97042.84;;;6.72;100.00
44001;BME280;29660;42.892;24.710;2022-11-15T15:53:55;97105.50;;;7.09;100.00
44001;BME280;29660;42.892;24.710;2022-11-15T15:58:59;97102.56;;;7.00;100.00
44001;BME280;29660;42.892;24.710;2022-11-15T16:04:01;96790.19;;;5.17;100.00
44001;BME280;29660;42.892;24.710;2022-11-15T16:09:04;97074.91;;;6.76;100.00
44001;BME280;29660;42.892;24.710;2022-11-15T16:14:16;96886.69;;;5.67;100.00
44001;BME280;29660;42.892;24.710;2022-11-15T16:19:17;97112.16;;;7.11;100.00
44001;BME280;29660;42.892;24.710;2022-11-15T16:24:20;96784.00;;;5.01;100.00
44001;BME280;29660;42.892;24.710;2022-11-15T16:29:22;97108.44;;;7.07;100.00
44001;BME280;29660;42.892;24.710;2022-11-15T16:34:24;97093.00;;;6.99;100.00
44001;BME280;29660;42.892;24.710;2022-11-15T16:39:30;96995.28;;;6.40;100.00
44001;BME280;29660;42.892;24.710;2022-11-15T16:44:33;96760.22;;;5.01;100.00
44001;BME280;29660;42.892;24.710;2022-11-15T16:49:34;96774.53;;;5.10;100.00
44001;BME280;29660;42.892;24.710;2022-11-15T16:54:36;96823.88;;;5.42;100.00
44001;BME280;29660;42.892;24.710;2022-11-15T16:59:38;96768.50;;;5.15;100.00
44001;BME280;29660;42.892;24.710;2022-11-15T17:04:42;97075.81;;;7.17;100.00
44001;BME280;29660;42.892;24.710;2022-11-15T17:09:43;96492.47;;;3.50;100.00
44001;BME280;29660;42.892;24.710;2022-11-15T17:14:45;97069.47;;;7.23;100.00
44001;BME280;29660;42.892;24.710;2022-11-15T17:19:48;96721.88;;;4.93;100.00
44001;BME280;29660;42.892;24.710;2022-11-15T17:24:49;97033.09;;;6.93;100.00
44001;BME280;29660;42.892;24.710;2022-11-15T17:29:51;96977.59;;;6.56;100.00
44001;BME280;29660;42.892;24.710;2022-11-15T17:34:54;96912.81;;;6.06;100.00
44001;BME280;29660;42.892;24.710;2022-11-15T17:39:56;97033.59;;;6.85;100.00
44001;BME280;29660;42.892;24.710;2022-11-15T17:44:58;96805.84;;;5.34;100.00
44001;BME280;29660;42.892;24.710;2022-11-15T17:50:04;96698.13;;;4.51;100.00
44001;BME280;29660;42.892;24.710;2022-11-15T17:55:06;96918.25;;;5.89;100.00
44001;BME280;29660;42.892;24.710;2022-11-15T18:00:08;96934.16;;;5.89;100.00
44001;BME280;29660;42.892;24.710;2022-11-15T18:05:10;96615.22;;;3.67;100.00
44001;BME280;29660;42.892;24.710;2022-11-15T18:10:12;97010.00;;;6.05;100.00
44001;BME280;29660;42.892;24.710;2022-11-15T18:15:14;96916.13;;;5.33;100.00
44001;BME280;29660;42.892;24.710;2022-11-15T18:20:16;96934.94;;;5.42;100.00
44001;BME280;29660;42.892;24.710;2022-11-15T18:25:19;96960.56;;;5.36;100.00
44001;BME280;29660;42.892;24.710;2022-11-15T18:30:21;96707.06;;;3.76;100.00
44001;BME280;29660;42.892;24.710;2022-11-15T18:35:23;96965.69;;;5.48;100.00
44001;BME280;29660;42.892;24.710;2022-11-15T18:40:25;96833.34;;;4.53;100.00
44001;BME280;29660;42.892;24.710;2022-11-15T18:45:27;96543.16;;;2.70;100.00
44001;BME280;29660;42.892;24.710;2022-11-15T18:50:29;96611.50;;;3.09;100.00
44001;BME280;29660;42.892;24.710;2022-11-15T18:55:31;96949.09;;;5.21;100.00
44001;BME280;29660;42.892;24.710;2022-11-15T19:00:33;96948.50;;;5.13;100.00
44001;BME280;29660;42.892;24.710;2022-11-15T19:05:34;96595.16;;;2.80;100.00
44001;BME280;29660;42.892;24.710;2022-11-15T19:10:36;96593.06;;;2.82;100.00
44001;BME280;29660;42.892;24.710;2022-11-15T19:15:38;96966.81;;;4.88;100.00
44001;BME280;29660;42.892;24.710;2022-11-15T19:20:40;96590.19;;;2.62;100.00
44001;BME280;29660;42.892;24.710;2022-11-15T19:25:42;96726.88;;;3.51;100.00
44001;BME280;29660;42.892;24.710;2022-11-15T19:30:44;96549.56;;;2.31;100.00
44001;BME280;29660;42.892;24.710;2022-11-15T19:35:46;96893.91;;;4.33;100.00
44001;BME280;29660;42.892;24.710;2022-11-15T19:40:48;96866.75;;;4.10;100.00
44001;BME280;29660;42.892;24.710;2022-11-15T19:45:58;96919.09;;;4.46;100.00
44001;BME280;29660;42.892;24.710;2022-11-15T19:51:09;96898.41;;;4.32;100.00
44001;BME280;29660;42.892;24.710;2022-11-15T19:56:12;96915.69;;;4.45;100.00
44001;BME280;29660;42.892;24.710;2022-11-15T20:01:24;96915.69;;;4.45;100.00
44001;BME280;29660;42.892;24.710;2022-11-15T20:06:31;96601.94;;;2.54;100.00
44001;BME280;29660;42.892;24.710;2022-11-15T20:11:34;96602.50;;;2.56;100.00
44001;BME280;29660;42.892;24.710;2022-11-15T20:16:38;96586.06;;;2.44;100.00
44001;BME280;29660;42.892;24.710;2022-11-15T20:21:41;96865.81;;;4.22;100.00
44001;BME280;29660;42.892;24.710;2022-11-15T20:26:44;96897.28;;;4.28;100.00
44001;BME280;29660;42.892;24.710;2022-11-15T20:31:47;96930.19;;;4.48;100.00
44001;BME280;29660;42.892;24.710;2022-11-15T20:36:49;96877.84;;;4.39;100.00
44001;BME280;29660;42.892;24.710;2022-11-15T20:41:51;96884.59;;;4.52;100.00
44001;BME280;29660;42.892;24.710;2022-11-15T20:46:53;96533.72;;;2.26;100.00
44001;BME280;29660;42.892;24.710;2022-11-15T20:51:55;96557.94;;;2.28;100.00
44001;BME280;29660;42.892;24.710;2022-11-15T20:56:57;96870.81;;;4.50;100.00
44001;BME280;29660;42.892;24.710;2022-11-15T21:01:59;96532.97;;;2.30;100.00
44001;BME280;29660;42.892;24.710;2022-11-15T21:07:01;96508.31;;;2.14;100.00
44001;BME280;29660;42.892;24.710;2022-11-15T21:12:03;96472.03;;;1.94;100.00
44001;BME280;29660;42.892;24.710;2022-11-15T21:17:15;96857.59;;;4.45;100.00
44001;BME280;29660;42.892;24.710;2022-11-15T21:22:17;96534.88;;;2.35;100.00
44001;BME280;29660;42.892;24.710;2022-11-15T21:27:18;96459.06;;;1.88;100.00
44001;BME280;29660;42.892;24.710;2022-11-15T21:32:22;96659.72;;;3.10;100.00
44001;BME280;29660;42.892;24.710;2022-11-15T21:37:24;96776.44;;;4.03;100.00
44001;BME280;29660;42.892;24.710;2022-11-15T21:42:26;96849.97;;;4.22;100.00
44001;BME280;29660;42.892;24.710;2022-11-15T21:47:27;96763.69;;;3.95;100.00
44001;BME280;29660;42.892;24.710;2022-11-15T21:52:29;96490.88;;;1.86;100.00
44001;BME280;29660;42.892;24.710;2022-11-15T21:57:31;96821.28;;;4.03;100.00
44001;BME280;29660;42.892;24.710;2022-11-15T22:02:33;96742.78;;;3.61;100.00
44001;BME280;29660;42.892;24.710;2022-11-15T22:07:35;96469.97;;;1.96;100.00
44001;BME280;29660;42.892;24.710;2022-11-15T22:12:37;96737.25;;;3.63;100.00
44001;BME280;29660;42.892;24.710;2022-11-15T22:17:39;96762.88;;;3.67;100.00
44001;BME280;29660;42.892;24.710;2022-11-15T22:22:59;96194.56;;;0.23;100.00
44001;BME280;29660;42.892;24.710;2022-11-15T22:28:02;96730.31;;;3.79;100.00
44001;BME280;29660;42.892;24.710;2022-11-15T22:33:04;96429.53;;;1.81;100.00
44001;BME280;29660;42.892;24.710;2022-11-15T22:38:07;96785.72;;;4.11;100.00
44001;BME280;29660;42.892;24.710;2022-11-15T22:43:11;96444.41;;;1.92;100.00
44001;BME280;29660;42.892;24.710;2022-11-15T22:48:14;96466.00;;;1.94;100.00
44001;BME280;29660;42.892;24.710;2022-11-15T22:53:17;96496.75;;;2.15;100.00
44001;BME280;29660;42.892;24.710;2022-11-15T22:58:20;96799.69;;;4.06;100.00
44001;BME280;29660;42.892;24.710;2022-11-15T23:03:23;96743.56;;;3.89;100.00
44001;BME280;29660;42.892;24.710;2022-11-15T23:08:26;96750.47;;;3.90;100.00
44001;BME280;29660;42.892;24.710;2022-11-15T23:13:30;96748.25;;;4.09;100.00
44001;BME280;29660;42.892;24.710;2022-11-15T23:18:34;96543.53;;;2.79;100.00
44001;BME280;29660;42.892;24.710;2022-11-15T23:23:36;96698.25;;;3.65;100.00
44001;BME280;29660;42.892;24.710;2022-11-15T23:28:38;96373.19;;;1.71;100.00
44001;BME280;29660;42.892;24.710;2022-11-15T23:33:40;96343.06;;;1.57;100.00
44001;BME280;29660;42.892;24.710;2022-11-15T23:38:58;96659.91;;;3.52;100.00
44001;BME280;29660;42.892;24.710;2022-11-15T23:44:00;96626.38;;;3.20;100.00
44001;BME280;29660;42.892;24.710;2022-11-15T23:49:03;96716.50;;;3.99;100.00
44001;BME280;29660;42.892;24.710;2022-11-15T23:54:05;96357.22;;;1.78;100.00
44001;BME280;29660;42.892;24.710;2022-11-15T23:59:07;96569.91;;;3.11;100.00
